sensor_id;sensor_type;location;lat;lon;timestamp;temperature;humidity
32612;DHT22;19030;49.478;8.986;2024-01-30T00:01:52;1.30;99.90
32612;DHT22;19030;49.478;8.986;2024-01-30T00:03:52;1.30;99.90
32612;DHT22;19030;49.478;8.986;2024-01-30T00:05:53;1.30;99.90
32612;DHT22;19030;49.478;8.986;2024-01-30T00:07:54;1.30;99.90
32612;DHT22;19030;49.478;8.986;2024-01-30T00:09:54;1.30;99.90
32612;DHT22;19030;49.478;8.986;2024-01-30T00:11:55;1.30;99.90
32612;DHT22;19030;49.478;8.986;2024-01-30T00:13:56;1.30;99.90
32612;DHT22;19030;49.478;8.986;2024-01-30T00:15:57;1.30;99.90
32612;DHT22;19030;49.478;8.986;2024-01-30T00:17:58;1.20;99.90
32612;DHT22;19030;49.478;8.986;2024-01-30T00:19:58;1.30;99.90
32612;DHT22;19030;49.478;8.986;2024-01-30T00:21:59;1.30;99.90
32612;DHT22;19030;49.478;8.986;2024-01-30T00:23:59;1.30;99.90
32612;DHT22;19030;49.478;8.986;2024-01-30T00:26:00;1.20;99.90
32612;DHT22;19030;49.478;8.986;2024-01-30T00:28:01;1.30;99.90
32612;DHT22;19030;49.478;8.986;2024-01-30T00:30:01;1.20;99.90
32612;DHT22;19030;49.478;8.986;2024-01-30T00:32:02;1.20;99.90
32612;DHT22;19030;49.478;8.986;2024-01-30T00:34:03;1.20;99.90
32612;DHT22;19030;49.478;8.986;2024-01-30T00:36:04;1.20;99.90
32612;DHT22;19030;49.478;8.986;2024-01-30T00:38:05;1.10;99.90
32612;DHT22;19030;49.478;8.986;2024-01-30T00:40:08;1.10;99.90
32612;DHT22;19030;49.478;8.986;2024-01-30T00:42:10;1.10;99.90
32612;DHT22;19030;49.478;8.986;2024-01-30T00:44:11;1.10;99.90
32612;DHT22;19030;49.478;8.986;2024-01-30T00:46:11;1.10;99.90
32612;DHT22;19030;49.478;8.986;2024-01-30T00:48:12;1.10;99.90
32612;DHT22;19030;49.478;8.986;2024-01-30T00:50:12;1.10;99.90
32612;DHT22;19030;49.478;8.986;2024-01-30T00:52:13;1.10;99.90
32612;DHT22;19030;49.478;8.986;2024-01-30T00:54:14;1.10;99.90
32612;DHT22;19030;49.478;8.986;2024-01-30T00:56:14;1.10;99.90
32612;DHT22;19030;49.478;8.986;2024-01-30T00:58:18;1.00;99.90
32612;DHT22;19030;49.478;8.986;2024-01-30T01:00:19;1.00;99.90
32612;DHT22;19030;49.478;8.986;2024-01-30T01:02:21;1.00;99.90
32612;DHT22;19030;49.478;8.986;2024-01-30T01:04:21;1.00;99.90
32612;DHT22;19030;49.478;8.986;2024-01-30T01:06:22;0.90;99.90
32612;DHT22;19030;49.478;8.986;2024-01-30T01:08:22;1.00;99.90
32612;DHT22;19030;49.478;8.986;2024-01-30T01:10:23;0.90;99.90
32612;DHT22;19030;49.478;8.986;2024-01-30T01:12:24;0.90;99.90
32612;DHT22;19030;49.478;8.986;2024-01-30T01:14:24;0.90;99.90
32612;DHT22;19030;49.478;8.986;2024-01-30T01:16:25;0.90;99.90
32612;DHT22;19030;49.478;8.986;2024-01-30T01:18:26;0.90;99.90
32612;DHT22;19030;49.478;8.986;2024-01-30T01:20:27;0.80;99.90
32612;DHT22;19030;49.478;8.986;2024-01-30T01:22:28;0.80;99.90
32612;DHT22;19030;49.478;8.986;2024-01-30T01:24:30;0.80;99.90
32612;DHT22;19030;49.478;8.986;2024-01-30T01:26:31;0.80;99.90
32612;DHT22;19030;49.478;8.986;2024-01-30T01:28:31;0.80;99.90
32612;DHT22;19030;49.478;8.986;2024-01-30T01:30:32;0.80;99.90
32612;DHT22;19030;49.478;8.986;2024-01-30T01:32:32;0.80;99.90
32612;DHT22;19030;49.478;8.986;2024-01-30T01:34:33;0.80;99.90
32612;DHT22;19030;49.478;8.986;2024-01-30T01:36:34;0.70;99.90
32612;DHT22;19030;49.478;8.986;2024-01-30T01:38:34;0.70;99.90
32612;DHT22;19030;49.478;8.986;2024-01-30T01:40:35;0.70;99.90
32612;DHT22;19030;49.478;8.986;2024-01-30T01:42:35;0.70;99.90
32612;DHT22;19030;49.478;8.986;2024-01-30T01:44:36;0.70;99.90
32612;DHT22;19030;49.478;8.986;2024-01-30T01:46:37;0.70;99.90
32612;DHT22;19030;49.478;8.986;2024-01-30T01:48:37;0.70;99.90
32612;DHT22;19030;49.478;8.986;2024-01-30T01:50:41;0.70;99.90
32612;DHT22;19030;49.478;8.986;2024-01-30T01:52:42;0.60;99.90
32612;DHT22;19030;49.478;8.986;2024-01-30T01:54:43;0.60;99.90
32612;DHT22;19030;49.478;8.986;2024-01-30T01:56:44;0.60;99.90
32612;DHT22;19030;49.478;8.986;2024-01-30T01:58:46;0.60;99.90
32612;DHT22;19030;49.478;8.986;2024-01-30T02:00:48;0.60;99.90
32612;DHT22;19030;49.478;8.986;2024-01-30T02:02:49;0.60;99.90
32612;DHT22;19030;49.478;8.986;2024-01-30T02:04:50;0.60;99.90
32612;DHT22;19030;49.478;8.986;2024-01-30T02:06:51;0.60;99.90
32612;DHT22;19030;49.478;8.986;2024-01-30T02:08:52;0.60;99.90
32612;DHT22;19030;49.478;8.986;2024-01-30T02:10:53;0.60;99.90
32612;DHT22;19030;49.478;8.986;2024-01-30T02:12:53;0.50;99.90
32612;DHT22;19030;49.478;8.986;2024-01-30T02:14:54;0.60;99.90
32612;DHT22;19030;49.478;8.986;2024-01-30T02:16:55;0.60;99.90
32612;DHT22;19030;49.478;8.986;2024-01-30T02:18:56;0.60;99.90
32612;DHT22;19030;49.478;8.986;2024-01-30T02:20:58;0.60;99.90
32612;DHT22;19030;49.478;8.986;2024-01-30T02:23:02;0.60;99.90
32612;DHT22;19030;49.478;8.986;2024-01-30T02:25:03;0.50;99.90
32612;DHT22;19030;49.478;8.986;2024-01-30T02:27:04;0.50;99.90
32612;DHT22;19030;49.478;8.986;2024-01-30T02:29:04;0.50;99.90
32612;DHT22;19030;49.478;8.986;2024-01-30T02:31:05;0.40;99.90
32612;DHT22;19030;49.478;8.986;2024-01-30T02:33:06;0.40;99.90
32612;DHT22;19030;49.478;8.986;2024-01-30T02:35:06;0.40;99.90
32612;DHT22;19030;49.478;8.986;2024-01-30T02:37:07;0.40;99.90
32612;DHT22;19030;49.478;8.986;2024-01-30T02:39:07;0.40;99.90
32612;DHT22;19030;49.478;8.986;2024-01-30T02:41:08;0.40;99.90
32612;DHT22;19030;49.478;8.986;2024-01-30T02:43:08;0.40;99.90
32612;DHT22;19030;49.478;8.986;2024-01-30T02:45:09;0.40;99.90
32612;DHT22;19030;49.478;8.986;2024-01-30T02:47:10;0.40;99.90
32612;DHT22;19030;49.478;8.986;2024-01-30T02:49:11;0.40;99.90
32612;DHT22;19030;49.478;8.986;2024-01-30T02:51:11;0.40;99.90
32612;DHT22;19030;49.478;8.986;2024-01-30T02:53:12;0.40;99.90
32612;DHT22;19030;49.478;8.986;2024-01-30T02:55:12;0.40;99.90
32612;DHT22;19030;49.478;8.986;2024-01-30T02:57:13;0.40;99.90
32612;DHT22;19030;49.478;8.986;2024-01-30T02:59:14;0.40;99.90
32612;DHT22;19030;49.478;8.986;2024-01-30T03:01:14;0.40;99.90
32612;DHT22;19030;49.478;8.986;2024-01-30T03:03:15;0.40;99.90
32612;DHT22;19030;49.478;8.986;2024-01-30T03:05:15;0.40;99.90
32612;DHT22;19030;49.478;8.986;2024-01-30T03:07:16;0.40;99.90
32612;DHT22;19030;49.478;8.986;2024-01-30T03:09:17;0.40;99.90
32612;DHT22;19030;49.478;8.986;2024-01-30T03:11:20;0.40;99.90
32612;DHT22;19030;49.478;8.986;2024-01-30T03:13:21;0.40;99.90
32612;DHT22;19030;49.478;8.986;2024-01-30T03:15:23;0.30;99.90
32612;DHT22;19030;49.478;8.986;2024-01-30T03:17:24;0.30;99.90
32612;DHT22;19030;49.478;8.986;2024-01-30T03:19:25;0.30;99.90
32612;DHT22;19030;49.478;8.986;2024-01-30T03:21:25;0.30;99.90
32612;DHT22;19030;49.478;8.986;2024-01-30T03:23:26;0.30;99.90
32612;DHT22;19030;49.478;8.986;2024-01-30T03:25:26;0.20;99.90
32612;DHT22;19030;49.478;8.986;2024-01-30T03:27:27;0.20;99.90
32612;DHT22;19030;49.478;8.986;2024-01-30T03:29:27;0.20;99.90
32612;DHT22;19030;49.478;8.986;2024-01-30T03:31:28;0.20;99.90
32612;DHT22;19030;49.478;8.986;2024-01-30T03:33:28;0.20;99.90
32612;DHT22;19030;49.478;8.986;2024-01-30T03:35:29;0.20;99.90
32612;DHT22;19030;49.478;8.986;2024-01-30T03:37:29;0.20;99.90
32612;DHT22;19030;49.478;8.986;2024-01-30T03:39:30;0.20;99.90
32612;DHT22;19030;49.478;8.986;2024-01-30T03:41:31;0.20;99.90
32612;DHT22;19030;49.478;8.986;2024-01-30T03:43:31;0.20;99.90
32612;DHT22;19030;49.478;8.986;2024-01-30T03:45:32;0.20;99.90
32612;DHT22;19030;49.478;8.986;2024-01-30T03:47:32;0.20;99.90
32612;DHT22;19030;49.478;8.986;2024-01-30T03:49:33;0.20;99.90
32612;DHT22;19030;49.478;8.986;2024-01-30T03:51:33;0.20;99.90
32612;DHT22;19030;49.478;8.986;2024-01-30T03:53:34;0.20;99.90
32612;DHT22;19030;49.478;8.986;2024-01-30T03:55:34;0.20;99.90
32612;DHT22;19030;49.478;8.986;2024-01-30T03:57:35;0.20;99.90
32612;DHT22;19030;49.478;8.986;2024-01-30T03:59:35;0.10;99.90
32612;DHT22;19030;49.478;8.986;2024-01-30T04:01:36;0.10;99.90
32612;DHT22;19030;49.478;8.986;2024-01-30T04:03:37;0.10;99.90
32612;DHT22;19030;49.478;8.986;2024-01-30T04:05:37;0.10;99.90
32612;DHT22;19030;49.478;8.986;2024-01-30T04:07:38;0.10;99.90
32612;DHT22;19030;49.478;8.986;2024-01-30T04:09:38;0.10;99.90
32612;DHT22;19030;49.478;8.986;2024-01-30T04:11:40;0.10;99.90
32612;DHT22;19030;49.478;8.986;2024-01-30T04:13:40;0.10;99.90
32612;DHT22;19030;49.478;8.986;2024-01-30T04:15:43;0.00;99.90
32612;DHT22;19030;49.478;8.986;2024-01-30T04:17:44;0.00;99.90
32612;DHT22;19030;49.478;8.986;2024-01-30T04:19:44;0.00;99.90
32612;DHT22;19030;49.478;8.986;2024-01-30T04:21:45;0.00;99.90
32612;DHT22;19030;49.478;8.986;2024-01-30T04:23:45;0.00;99.90
32612;DHT22;19030;49.478;8.986;2024-01-30T04:25:46;0.00;99.90
32612;DHT22;19030;49.478;8.986;2024-01-30T04:27:47;-0.10;99.90
32612;DHT22;19030;49.478;8.986;2024-01-30T04:29:47;0.00;99.90
32612;DHT22;19030;49.478;8.986;2024-01-30T04:31:48;0.00;99.90
32612;DHT22;19030;49.478;8.986;2024-01-30T04:33:48;0.00;99.90
32612;DHT22;19030;49.478;8.986;2024-01-30T04:35:49;0.00;99.90
32612;DHT22;19030;49.478;8.986;2024-01-30T04:37:51;0.00;99.90
32612;DHT22;19030;49.478;8.986;2024-01-30T04:39:52;0.00;99.90
32612;DHT22;19030;49.478;8.986;2024-01-30T04:41:52;0.00;99.90
32612;DHT22;19030;49.478;8.986;2024-01-30T04:43:53;0.00;99.90
32612;DHT22;19030;49.478;8.986;2024-01-30T04:45:53;0.00;99.90
32612;DHT22;19030;49.478;8.986;2024-01-30T04:47:54;0.00;99.90
32612;DHT22;19030;49.478;8.986;2024-01-30T04:49:54;0.00;99.90
32612;DHT22;19030;49.478;8.986;2024-01-30T04:51:55;0.00;99.90
32612;DHT22;19030;49.478;8.986;2024-01-30T04:53:56;0.00;99.90
32612;DHT22;19030;49.478;8.986;2024-01-30T04:55:57;0.00;99.90
32612;DHT22;19030;49.478;8.986;2024-01-30T04:57:57;0.00;99.90
32612;DHT22;19030;49.478;8.986;2024-01-30T04:59:58;0.00;99.90
32612;DHT22;19030;49.478;8.986;2024-01-30T05:01:58;0.00;99.90
32612;DHT22;19030;49.478;8.986;2024-01-30T05:03:59;0.00;99.90
32612;DHT22;19030;49.478;8.986;2024-01-30T05:06:00;0.00;99.90
32612;DHT22;19030;49.478;8.986;2024-01-30T05:08:01;0.00;99.90
32612;DHT22;19030;49.478;8.986;2024-01-30T05:10:01;0.00;99.90
32612;DHT22;19030;49.478;8.986;2024-01-30T05:12:02;0.00;99.90
32612;DHT22;19030;49.478;8.986;2024-01-30T05:14:03;0.00;99.90
32612;DHT22;19030;49.478;8.986;2024-01-30T05:16:03;-0.10;99.90
32612;DHT22;19030;49.478;8.986;2024-01-30T05:18:04;0.00;99.90
32612;DHT22;19030;49.478;8.986;2024-01-30T05:20:05;0.00;99.90
32612;DHT22;19030;49.478;8.986;2024-01-30T05:22:06;0.00;99.90
32612;DHT22;19030;49.478;8.986;2024-01-30T05:24:07;0.00;99.90
32612;DHT22;19030;49.478;8.986;2024-01-30T05:26:10;-0.10;99.90
32612;DHT22;19030;49.478;8.986;2024-01-30T05:28:10;0.00;99.90
32612;DHT22;19030;49.478;8.986;2024-01-30T05:30:11;0.00;99.90
32612;DHT22;19030;49.478;8.986;2024-01-30T05:32:12;0.00;99.90
32612;DHT22;19030;49.478;8.986;2024-01-30T05:34:12;0.00;99.90
32612;DHT22;19030;49.478;8.986;2024-01-30T05:36:13;0.00;99.90
32612;DHT22;19030;49.478;8.986;2024-01-30T05:38:14;0.00;99.90
32612;DHT22;19030;49.478;8.986;2024-01-30T05:40:15;0.00;99.90
32612;DHT22;19030;49.478;8.986;2024-01-30T05:42:16;0.00;99.90
32612;DHT22;19030;49.478;8.986;2024-01-30T05:44:17;0.00;99.90
32612;DHT22;19030;49.478;8.986;2024-01-30T05:46:17;0.00;99.90
32612;DHT22;19030;49.478;8.986;2024-01-30T05:48:18;0.00;99.90
32612;DHT22;19030;49.478;8.986;2024-01-30T05:50:19;0.00;99.90
32612;DHT22;19030;49.478;8.986;2024-01-30T05:52:19;0.00;99.90
32612;DHT22;19030;49.478;8.986;2024-01-30T05:54:20;0.00;99.90
32612;DHT22;19030;49.478;8.986;2024-01-30T05:56:22;0.00;99.90
32612;DHT22;19030;49.478;8.986;2024-01-30T05:58:22;0.00;99.90
32612;DHT22;19030;49.478;8.986;2024-01-30T06:00:23;0.00;99.90
32612;DHT22;19030;49.478;8.986;2024-01-30T06:02:23;0.00;99.90
32612;DHT22;19030;49.478;8.986;2024-01-30T06:04:24;-0.10;99.90
32612;DHT22;19030;49.478;8.986;2024-01-30T06:06:24;-0.10;99.90
32612;DHT22;19030;49.478;8.986;2024-01-30T06:08:25;-0.10;99.90
32612;DHT22;19030;49.478;8.986;2024-01-30T06:10:26;-0.20;99.90
32612;DHT22;19030;49.478;8.986;2024-01-30T06:12:27;-0.10;99.90
32612;DHT22;19030;49.478;8.986;2024-01-30T06:14:28;-0.10;99.90
32612;DHT22;19030;49.478;8.986;2024-01-30T06:16:28;-0.10;99.90
32612;DHT22;19030;49.478;8.986;2024-01-30T06:18:29;-0.10;99.90
32612;DHT22;19030;49.478;8.986;2024-01-30T06:20:31;-0.10;99.90
32612;DHT22;19030;49.478;8.986;2024-01-30T06:22:32;-0.10;99.90
32612;DHT22;19030;49.478;8.986;2024-01-30T06:24:33;-0.10;99.90
32612;DHT22;19030;49.478;8.986;2024-01-30T06:26:34;-0.10;99.90
32612;DHT22;19030;49.478;8.986;2024-01-30T06:28:35;-0.10;99.90
32612;DHT22;19030;49.478;8.986;2024-01-30T06:30:35;-0.10;99.90
32612;DHT22;19030;49.478;8.986;2024-01-30T06:32:36;-0.10;99.90
32612;DHT22;19030;49.478;8.986;2024-01-30T06:34:36;-0.10;99.90
32612;DHT22;19030;49.478;8.986;2024-01-30T06:36:39;-0.10;99.90
32612;DHT22;19030;49.478;8.986;2024-01-30T06:38:40;-0.10;99.90
32612;DHT22;19030;49.478;8.986;2024-01-30T06:40:41;-0.20;99.90
32612;DHT22;19030;49.478;8.986;2024-01-30T06:42:42;-0.10;99.90
32612;DHT22;19030;49.478;8.986;2024-01-30T06:44:42;-0.20;99.90
32612;DHT22;19030;49.478;8.986;2024-01-30T06:46:43;-0.20;99.90
32612;DHT22;19030;49.478;8.986;2024-01-30T06:48:43;-0.10;99.90
32612;DHT22;19030;49.478;8.986;2024-01-30T06:50:45;-0.10;99.90
32612;DHT22;19030;49.478;8.986;2024-01-30T06:52:46;-0.20;99.90
32612;DHT22;19030;49.478;8.986;2024-01-30T06:54:46;-0.10;99.90
32612;DHT22;19030;49.478;8.986;2024-01-30T06:56:47;-0.10;99.90
32612;DHT22;19030;49.478;8.986;2024-01-30T06:58:50;-0.10;99.90
32612;DHT22;19030;49.478;8.986;2024-01-30T07:00:51;-0.10;99.90
32612;DHT22;19030;49.478;8.986;2024-01-30T07:02:52;0.00;99.90
32612;DHT22;19030;49.478;8.986;2024-01-30T07:04:52;0.00;99.90
32612;DHT22;19030;49.478;8.986;2024-01-30T07:06:53;0.00;99.90
32612;DHT22;19030;49.478;8.986;2024-01-30T07:08:53;0.00;99.90
32612;DHT22;19030;49.478;8.986;2024-01-30T07:10:54;0.00;99.90
32612;DHT22;19030;49.478;8.986;2024-01-30T07:12:55;0.00;99.90
32612;DHT22;19030;49.478;8.986;2024-01-30T07:14:56;0.10;99.90
32612;DHT22;19030;49.478;8.986;2024-01-30T07:16:56;0.10;99.90
32612;DHT22;19030;49.478;8.986;2024-01-30T07:18:57;0.10;99.90
32612;DHT22;19030;49.478;8.986;2024-01-30T07:20:57;0.20;99.90
32612;DHT22;19030;49.478;8.986;2024-01-30T07:22:59;0.20;99.90
32612;DHT22;19030;49.478;8.986;2024-01-30T07:24:59;0.20;99.90
32612;DHT22;19030;49.478;8.986;2024-01-30T07:27:00;0.20;99.90
32612;DHT22;19030;49.478;8.986;2024-01-30T07:29:00;0.30;99.90
32612;DHT22;19030;49.478;8.986;2024-01-30T07:31:01;0.30;99.90
32612;DHT22;19030;49.478;8.986;2024-01-30T07:33:02;0.40;99.90
32612;DHT22;19030;49.478;8.986;2024-01-30T07:35:03;0.40;99.90
32612;DHT22;19030;49.478;8.986;2024-01-30T07:37:04;0.50;99.90
32612;DHT22;19030;49.478;8.986;2024-01-30T07:39:04;0.60;99.90
32612;DHT22;19030;49.478;8.986;2024-01-30T07:41:05;0.60;99.90
32612;DHT22;19030;49.478;8.986;2024-01-30T07:43:05;0.70;99.90
32612;DHT22;19030;49.478;8.986;2024-01-30T07:45:06;0.80;99.90
32612;DHT22;19030;49.478;8.986;2024-01-30T07:47:07;0.80;99.90
32612;DHT22;19030;49.478;8.986;2024-01-30T07:49:08;0.90;99.90
32612;DHT22;19030;49.478;8.986;2024-01-30T07:51:08;1.00;99.90
32612;DHT22;19030;49.478;8.986;2024-01-30T07:53:09;1.10;99.90
32612;DHT22;19030;49.478;8.986;2024-01-30T07:55:09;1.10;99.90
32612;DHT22;19030;49.478;8.986;2024-01-30T07:57:10;1.20;99.90
32612;DHT22;19030;49.478;8.986;2024-01-30T07:59:11;1.20;99.90
32612;DHT22;19030;49.478;8.986;2024-01-30T08:01:11;1.30;99.90
32612;DHT22;19030;49.478;8.986;2024-01-30T08:03:12;1.40;99.90
32612;DHT22;19030;49.478;8.986;2024-01-30T08:05:13;1.40;99.90
32612;DHT22;19030;49.478;8.986;2024-01-30T08:07:15;1.50;99.90
32612;DHT22;19030;49.478;8.986;2024-01-30T08:09:17;1.60;99.90
32612;DHT22;19030;49.478;8.986;2024-01-30T08:11:19;1.70;99.90
32612;DHT22;19030;49.478;8.986;2024-01-30T08:13:20;1.70;99.90
32612;DHT22;19030;49.478;8.986;2024-01-30T08:15:20;1.80;99.90
32612;DHT22;19030;49.478;8.986;2024-01-30T08:17:21;1.90;99.90
32612;DHT22;19030;49.478;8.986;2024-01-30T08:19:21;2.20;99.90
32612;DHT22;19030;49.478;8.986;2024-01-30T08:21:22;2.40;99.90
32612;DHT22;19030;49.478;8.986;2024-01-30T08:23:23;2.70;99.90
32612;DHT22;19030;49.478;8.986;2024-01-30T08:25:23;2.90;99.90
32612;DHT22;19030;49.478;8.986;2024-01-30T08:27:24;3.10;99.90
32612;DHT22;19030;49.478;8.986;2024-01-30T08:29:24;3.30;99.90
32612;DHT22;19030;49.478;8.986;2024-01-30T08:31:25;3.60;99.90
32612;DHT22;19030;49.478;8.986;2024-01-30T08:33:25;3.70;99.90
32612;DHT22;19030;49.478;8.986;2024-01-30T08:35:26;3.70;99.90
32612;DHT22;19030;49.478;8.986;2024-01-30T08:37:27;3.90;99.90
32612;DHT22;19030;49.478;8.986;2024-01-30T08:39:27;4.10;99.90
32612;DHT22;19030;49.478;8.986;2024-01-30T08:41:28;4.30;99.90
32612;DHT22;19030;49.478;8.986;2024-01-30T08:43:28;4.60;99.90
32612;DHT22;19030;49.478;8.986;2024-01-30T08:45:29;4.80;99.90
32612;DHT22;19030;49.478;8.986;2024-01-30T08:47:30;5.00;99.90
32612;DHT22;19030;49.478;8.986;2024-01-30T08:49:31;5.10;99.90
32612;DHT22;19030;49.478;8.986;2024-01-30T08:51:32;5.20;99.90
32612;DHT22;19030;49.478;8.986;2024-01-30T08:53:32;5.30;99.90
32612;DHT22;19030;49.478;8.986;2024-01-30T08:55:33;5.60;99.90
32612;DHT22;19030;49.478;8.986;2024-01-30T08:57:34;6.00;99.90
32612;DHT22;19030;49.478;8.986;2024-01-30T08:59:34;6.30;99.90
32612;DHT22;19030;49.478;8.986;2024-01-30T09:01:35;6.60;99.90
32612;DHT22;19030;49.478;8.986;2024-01-30T09:03:35;6.80;99.90
32612;DHT22;19030;49.478;8.986;2024-01-30T09:05:38;7.10;99.90
32612;DHT22;19030;49.478;8.986;2024-01-30T09:07:38;7.20;99.90
32612;DHT22;19030;49.478;8.986;2024-01-30T09:09:39;7.10;99.90
32612;DHT22;19030;49.478;8.986;2024-01-30T09:11:43;7.20;99.90
32612;DHT22;19030;49.478;8.986;2024-01-30T09:13:44;7.30;99.90
32612;DHT22;19030;49.478;8.986;2024-01-30T09:15:44;7.40;99.90
32612;DHT22;19030;49.478;8.986;2024-01-30T09:17:45;7.60;99.90
32612;DHT22;19030;49.478;8.986;2024-01-30T09:19:46;8.00;99.90
32612;DHT22;19030;49.478;8.986;2024-01-30T09:21:46;8.10;99.90
32612;DHT22;19030;49.478;8.986;2024-01-30T09:23:47;8.10;99.90
32612;DHT22;19030;49.478;8.986;2024-01-30T09:25:48;8.00;99.90
32612;DHT22;19030;49.478;8.986;2024-01-30T09:27:48;7.80;99.90
32612;DHT22;19030;49.478;8.986;2024-01-30T09:29:49;7.50;99.90
32612;DHT22;19030;49.478;8.986;2024-01-30T09:31:50;7.50;99.90
32612;DHT22;19030;49.478;8.986;2024-01-30T09:33:50;7.70;99.90
32612;DHT22;19030;49.478;8.986;2024-01-30T09:35:51;8.30;99.90
32612;DHT22;19030;49.478;8.986;2024-01-30T09:37:52;8.80;99.90
32612;DHT22;19030;49.478;8.986;2024-01-30T09:39:53;9.50;99.90
32612;DHT22;19030;49.478;8.986;2024-01-30T09:42:18;10.00;99.90
32612;DHT22;19030;49.478;8.986;2024-01-30T09:44:22;10.00;99.80
32612;DHT22;19030;49.478;8.986;2024-01-30T09:46:26;9.70;99.50
32612;DHT22;19030;49.478;8.986;2024-01-30T09:48:30;9.10;99.90
32612;DHT22;19030;49.478;8.986;2024-01-30T09:50:33;8.50;99.90
32612;DHT22;19030;49.478;8.986;2024-01-30T09:52:36;8.00;99.90
32612;DHT22;19030;49.478;8.986;2024-01-30T09:54:38;7.60;99.90
32612;DHT22;19030;49.478;8.986;2024-01-30T09:56:39;7.30;99.90
32612;DHT22;19030;49.478;8.986;2024-01-30T09:58:39;7.00;99.90
32612;DHT22;19030;49.478;8.986;2024-01-30T10:00:40;6.70;99.90
32612;DHT22;19030;49.478;8.986;2024-01-30T10:02:41;6.40;99.90
32612;DHT22;19030;49.478;8.986;2024-01-30T10:04:42;6.20;99.90
32612;DHT22;19030;49.478;8.986;2024-01-30T10:06:42;6.10;99.90
32612;DHT22;19030;49.478;8.986;2024-01-30T10:08:43;6.00;99.90
32612;DHT22;19030;49.478;8.986;2024-01-30T10:10:46;6.00;99.90
32612;DHT22;19030;49.478;8.986;2024-01-30T10:12:47;6.00;99.90
32612;DHT22;19030;49.478;8.986;2024-01-30T10:14:47;5.90;99.90
32612;DHT22;19030;49.478;8.986;2024-01-30T10:16:48;5.80;99.90
32612;DHT22;19030;49.478;8.986;2024-01-30T10:18:48;5.80;99.90
32612;DHT22;19030;49.478;8.986;2024-01-30T10:20:49;5.80;99.90
32612;DHT22;19030;49.478;8.986;2024-01-30T10:22:50;5.90;99.90
32612;DHT22;19030;49.478;8.986;2024-01-30T10:24:50;6.00;99.90
32612;DHT22;19030;49.478;8.986;2024-01-30T10:26:51;6.00;99.90
32612;DHT22;19030;49.478;8.986;2024-01-30T10:28:52;6.10;99.90
32612;DHT22;19030;49.478;8.986;2024-01-30T10:30:59;6.20;99.90
32612;DHT22;19030;49.478;8.986;2024-01-30T10:33:00;6.30;99.90
32612;DHT22;19030;49.478;8.986;2024-01-30T10:35:01;6.30;99.90
32612;DHT22;19030;49.478;8.986;2024-01-30T10:37:09;6.30;99.90
32612;DHT22;19030;49.478;8.986;2024-01-30T10:39:17;6.30;99.90
32612;DHT22;19030;49.478;8.986;2024-01-30T10:41:25;6.20;99.90
32612;DHT22;19030;49.478;8.986;2024-01-30T10:43:35;6.10;99.90
32612;DHT22;19030;49.478;8.986;2024-01-30T10:45:37;6.00;99.90
32612;DHT22;19030;49.478;8.986;2024-01-30T10:47:49;6.00;99.90
32612;DHT22;19030;49.478;8.986;2024-01-30T10:49:51;6.00;99.90
32612;DHT22;19030;49.478;8.986;2024-01-30T10:51:52;6.00;99.90
32612;DHT22;19030;49.478;8.986;2024-01-30T10:53:55;6.10;99.90
32612;DHT22;19030;49.478;8.986;2024-01-30T10:55:56;6.10;99.90
32612;DHT22;19030;49.478;8.986;2024-01-30T10:57:58;6.20;99.90
32612;DHT22;19030;49.478;8.986;2024-01-30T11:00:01;6.20;99.90
32612;DHT22;19030;49.478;8.986;2024-01-30T11:02:02;6.20;99.90
32612;DHT22;19030;49.478;8.986;2024-01-30T11:04:03;6.20;99.90
32612;DHT22;19030;49.478;8.986;2024-01-30T11:06:04;6.20;99.90
32612;DHT22;19030;49.478;8.986;2024-01-30T11:08:11;6.30;99.90
32612;DHT22;19030;49.478;8.986;2024-01-30T11:10:12;6.40;99.90
32612;DHT22;19030;49.478;8.986;2024-01-30T11:12:15;6.50;99.90
32612;DHT22;19030;49.478;8.986;2024-01-30T11:14:16;6.70;99.90
32612;DHT22;19030;49.478;8.986;2024-01-30T11:16:16;6.90;99.90
32612;DHT22;19030;49.478;8.986;2024-01-30T11:18:24;7.20;99.90
32612;DHT22;19030;49.478;8.986;2024-01-30T11:20:27;7.50;99.90
32612;DHT22;19030;49.478;8.986;2024-01-30T11:22:31;7.80;99.90
32612;DHT22;19030;49.478;8.986;2024-01-30T11:24:40;8.00;99.90
32612;DHT22;19030;49.478;8.986;2024-01-30T11:26:42;8.20;99.90
32612;DHT22;19030;49.478;8.986;2024-01-30T11:28:43;8.30;99.90
32612;DHT22;19030;49.478;8.986;2024-01-30T11:31:03;8.30;99.90
32612;DHT22;19030;49.478;8.986;2024-01-30T11:33:08;8.20;99.90
32612;DHT22;19030;49.478;8.986;2024-01-30T11:35:11;7.90;99.90
32612;DHT22;19030;49.478;8.986;2024-01-30T11:37:12;7.70;99.90
32612;DHT22;19030;49.478;8.986;2024-01-30T11:39:16;7.60;99.90
32612;DHT22;19030;49.478;8.986;2024-01-30T11:41:17;7.60;99.90
32612;DHT22;19030;49.478;8.986;2024-01-30T11:43:19;7.60;99.90
32612;DHT22;19030;49.478;8.986;2024-01-30T11:45:19;7.70;99.90
32612;DHT22;19030;49.478;8.986;2024-01-30T11:47:20;7.70;99.90
32612;DHT22;19030;49.478;8.986;2024-01-30T11:49:20;7.80;99.90
32612;DHT22;19030;49.478;8.986;2024-01-30T11:51:21;8.00;99.90
32612;DHT22;19030;49.478;8.986;2024-01-30T11:53:22;8.00;99.90
32612;DHT22;19030;49.478;8.986;2024-01-30T11:55:23;8.20;99.90
32612;DHT22;19030;49.478;8.986;2024-01-30T11:57:26;8.40;99.90
32612;DHT22;19030;49.478;8.986;2024-01-30T11:59:26;8.60;99.90
32612;DHT22;19030;49.478;8.986;2024-01-30T12:01:27;8.70;99.90
32612;DHT22;19030;49.478;8.986;2024-01-30T12:03:27;8.80;99.90
32612;DHT22;19030;49.478;8.986;2024-01-30T12:05:29;8.80;99.90
32612;DHT22;19030;49.478;8.986;2024-01-30T12:07:29;8.90;99.90
32612;DHT22;19030;49.478;8.986;2024-01-30T12:09:30;8.80;99.90
32612;DHT22;19030;49.478;8.986;2024-01-30T12:11:31;8.80;99.90
32612;DHT22;19030;49.478;8.986;2024-01-30T12:13:31;8.80;99.90
32612;DHT22;19030;49.478;8.986;2024-01-30T12:15:32;8.70;99.90
32612;DHT22;19030;49.478;8.986;2024-01-30T12:17:33;8.70;99.90
32612;DHT22;19030;49.478;8.986;2024-01-30T12:19:37;8.60;99.90
32612;DHT22;19030;49.478;8.986;2024-01-30T12:21:38;8.70;99.90
32612;DHT22;19030;49.478;8.986;2024-01-30T12:23:39;8.70;99.90
32612;DHT22;19030;49.478;8.986;2024-01-30T12:25:40;8.70;99.90
32612;DHT22;19030;49.478;8.986;2024-01-30T12:27:46;8.90;99.90
32612;DHT22;19030;49.478;8.986;2024-01-30T12:29:47;8.90;99.90
32612;DHT22;19030;49.478;8.986;2024-01-30T12:31:47;8.90;99.90
32612;DHT22;19030;49.478;8.986;2024-01-30T12:33:49;8.90;99.90
32612;DHT22;19030;49.478;8.986;2024-01-30T12:35:50;9.00;99.90
32612;DHT22;19030;49.478;8.986;2024-01-30T12:37:50;9.10;99.90
32612;DHT22;19030;49.478;8.986;2024-01-30T12:39:54;9.20;99.90
32612;DHT22;19030;49.478;8.986;2024-01-30T12:41:54;9.30;99.90
32612;DHT22;19030;49.478;8.986;2024-01-30T12:43:56;9.40;99.90
32612;DHT22;19030;49.478;8.986;2024-01-30T12:45:56;9.50;99.90
32612;DHT22;19030;49.478;8.986;2024-01-30T12:47:57;9.60;99.90
32612;DHT22;19030;49.478;8.986;2024-01-30T12:49:58;9.60;99.90
32612;DHT22;19030;49.478;8.986;2024-01-30T12:51:59;9.70;99.90
32612;DHT22;19030;49.478;8.986;2024-01-30T12:54:04;9.60;99.90
32612;DHT22;19030;49.478;8.986;2024-01-30T12:56:05;9.60;99.90
32612;DHT22;19030;49.478;8.986;2024-01-30T12:58:06;9.40;99.90